createdAt,value
2023-02-22T00:01:03.001Z,64.85
2023-02-22T00:03:35.026Z,64.76
2023-02-22T00:06:04.984Z,64.74
2023-02-22T00:08:37.921Z,65.00
2023-02-22T00:11:10.426Z,64.90
2023-02-22T00:13:38.503Z,64.94
2023-02-22T00:16:06.392Z,65.08
2023-02-22T00:18:33.332Z,65.09
2023-02-22T00:21:01.256Z,65.28
2023-02-22T00:23:29.957Z,65.33
2023-02-22T00:25:58.771Z,65.25
2023-02-22T00:28:25.658Z,65.31
2023-02-22T00:30:52.926Z,65.05
2023-02-22T00:33:19.765Z,65.38
2023-02-22T00:35:46.656Z,65.22
2023-02-22T00:38:16.381Z,65.08
2023-02-22T00:40:43.425Z,65.26
2023-02-22T00:43:10.214Z,65.17
2023-02-22T00:45:37.878Z,65.29
2023-02-22T00:48:06.177Z,65.27
2023-02-22T00:50:33.705Z,65.31
2023-02-22T00:53:03.814Z,65.42
2023-02-22T00:55:33.721Z,65.20
2023-02-22T00:58:02.136Z,65.21
2023-02-22T01:00:41.734Z,65.00
2023-02-22T01:03:11.641Z,65.02
2023-02-22T01:05:38.949Z,65.27
2023-02-22T01:08:08.246Z,64.94
2023-02-22T01:10:35.392Z,65.26
2023-02-22T01:13:08.594Z,65.06
2023-02-22T01:15:37.785Z,65.42
2023-02-22T01:18:05.652Z,65.03
2023-02-22T01:20:33.241Z,65.15
2023-02-22T01:23:03.610Z,65.16
2023-02-22T01:25:31.683Z,65.13
2023-02-22T01:28:00.932Z,65.09
2023-02-22T01:30:31.029Z,64.99
2023-02-22T01:32:58.123Z,65.23
2023-02-22T01:35:29.088Z,65.11
2023-02-22T01:37:58.180Z,65.31
2023-02-22T01:40:33.864Z,65.18
2023-02-22T01:43:03.346Z,65.02
2023-02-22T01:45:30.245Z,64.90
2023-02-22T01:48:02.053Z,64.94
2023-02-22T01:50:31.880Z,64.70
2023-02-22T01:52:58.892Z,65.12
2023-02-22T01:55:25.980Z,65.29
2023-02-22T01:57:52.883Z,65.01
2023-02-22T02:00:21.549Z,65.06
2023-02-22T02:02:54.368Z,65.32
2023-02-22T02:05:21.432Z,65.11
2023-02-22T02:07:49.426Z,65.26
2023-02-22T02:10:16.276Z,65.43
2023-02-22T02:12:46.835Z,64.96
2023-02-22T02:15:29.031Z,64.83
2023-02-22T02:18:00.778Z,64.70
2023-02-22T02:20:30.949Z,64.69
2023-02-22T02:23:06.470Z,64.85
2023-02-22T02:25:52.357Z,64.62
2023-02-22T02:29:00.420Z,64.88
2023-02-22T02:32:18.741Z,64.66
2023-02-22T02:34:58.789Z,64.72
2023-02-22T02:37:31.601Z,64.67
2023-02-22T02:40:12.176Z,64.56
2023-02-22T02:42:46.260Z,64.51
2023-02-22T02:45:21.799Z,64.63
2023-02-22T02:47:57.245Z,64.67
2023-02-22T02:50:29.694Z,64.55
2023-02-22T02:53:01.336Z,64.56
2023-02-22T02:55:31.033Z,64.73
2023-02-22T02:57:59.381Z,64.77
2023-02-22T03:00:31.205Z,64.85
2023-02-22T03:03:23.696Z,64.83
2023-02-22T03:05:59.623Z,64.87
2023-02-22T03:08:32.616Z,64.85
2023-02-22T03:11:31.418Z,64.91
2023-02-22T03:14:16.500Z,64.72
2023-02-22T03:16:52.265Z,64.67
2023-02-22T03:19:45.786Z,64.75
2023-02-22T03:22:25.026Z,64.97
2023-02-22T03:25:02.235Z,64.93
2023-02-22T03:27:37.442Z,64.76
2023-02-22T03:30:10.389Z,64.71
2023-02-22T03:32:41.516Z,64.83
2023-02-22T03:35:13.141Z,64.83
2023-02-22T03:37:45.062Z,64.89
2023-02-22T03:40:26.510Z,64.96
2023-02-22T03:42:59.427Z,65.15
2023-02-22T03:45:29.332Z,65.02
2023-02-22T03:48:10.360Z,64.88
2023-02-22T03:50:38.463Z,64.78
2023-02-22T03:53:05.649Z,64.96
2023-02-22T03:55:33.031Z,65.18
2023-02-22T03:58:04.811Z,65.21
2023-02-22T04:00:33.942Z,64.96
2023-02-22T04:03:00.921Z,64.95
2023-02-22T04:05:27.794Z,64.99
2023-02-22T04:07:56.640Z,65.16
2023-02-22T04:10:24.331Z,65.04
2023-02-22T04:12:51.479Z,65.13
2023-02-22T04:15:21.969Z,65.10
2023-02-22T04:17:48.861Z,65.09
2023-02-22T04:20:19.957Z,65.08
2023-02-22T04:22:47.466Z,65.05
2023-02-22T04:25:15.051Z,65.01
2023-02-22T04:27:41.942Z,65.08
2023-02-22T04:30:09.557Z,65.02
2023-02-22T04:32:36.577Z,65.01
2023-02-22T04:35:04.848Z,65.21
2023-02-22T04:37:34.800Z,65.29
2023-02-22T04:40:02.394Z,65.30
2023-02-22T04:42:29.344Z,65.28
2023-02-22T04:44:56.162Z,65.35
2023-02-22T04:47:23.026Z,65.39
2023-02-22T04:49:49.873Z,65.35
2023-02-22T04:52:16.826Z,65.40
2023-02-22T04:54:43.740Z,65.43
2023-02-22T04:57:11.066Z,65.53
2023-02-22T04:59:37.962Z,65.47
2023-02-22T05:02:04.841Z,65.66
2023-02-22T05:04:31.749Z,65.53
2023-02-22T05:06:58.565Z,65.62
2023-02-22T05:09:25.366Z,65.71
2023-02-22T05:11:52.201Z,65.80
2023-02-22T05:14:18.993Z,65.58
2023-02-22T05:16:45.774Z,65.61
2023-02-22T05:19:12.759Z,65.72
2023-02-22T05:21:40.360Z,65.61
2023-02-22T05:24:07.656Z,65.64
2023-02-22T05:26:34.686Z,65.78
2023-02-22T05:29:01.535Z,65.66
2023-02-22T05:31:28.435Z,65.63
2023-02-22T05:33:55.294Z,65.59
2023-02-22T05:36:22.058Z,65.57
2023-02-22T05:38:48.875Z,65.63
2023-02-22T05:41:16.092Z,65.61
2023-02-22T05:43:43.117Z,65.67
2023-02-22T05:46:10.014Z,65.74
2023-02-22T05:48:37.015Z,65.77
2023-02-22T05:51:04.555Z,65.57
2023-02-22T05:53:31.410Z,65.73
2023-02-22T05:55:58.302Z,65.71
2023-02-22T05:58:25.161Z,65.94
2023-02-22T06:00:52.081Z,65.65
2023-02-22T06:03:18.902Z,65.97
2023-02-22T06:05:45.937Z,65.88
2023-02-22T06:08:12.773Z,65.86
2023-02-22T06:10:39.669Z,65.90
2023-02-22T06:13:07.281Z,65.86
2023-02-22T06:15:34.248Z,65.84
2023-02-22T06:18:01.696Z,65.71
2023-02-22T06:20:30.165Z,65.73
2023-02-22T06:22:58.585Z,65.60
2023-02-22T06:25:31.131Z,65.65
2023-02-22T06:27:59.441Z,65.68
2023-02-22T06:30:27.648Z,65.55
2023-02-22T06:32:54.631Z,65.55
2023-02-22T06:35:22.042Z,65.54
2023-02-22T06:37:49.060Z,65.59
2023-02-22T06:40:16.243Z,65.56
2023-02-22T06:42:43.223Z,65.64
2023-02-22T06:45:10.789Z,65.73
2023-02-22T06:47:41.457Z,65.49
2023-02-22T06:50:19.448Z,65.65
2023-02-22T06:52:47.969Z,65.60
2023-02-22T06:55:26.758Z,65.65
2023-02-22T06:57:53.669Z,65.60
2023-02-22T07:00:25.011Z,65.72
2023-02-22T07:02:52.841Z,65.68
2023-02-22T07:05:22.157Z,65.67
2023-02-22T07:07:52.638Z,65.67
2023-02-22T07:10:22.426Z,65.64
2023-02-22T07:12:49.265Z,65.48
2023-02-22T07:15:18.355Z,65.39
2023-02-22T07:17:45.378Z,65.20
2023-02-22T07:20:12.244Z,65.12
2023-02-22T07:22:39.676Z,65.29
2023-02-22T07:25:10.065Z,65.41
2023-02-22T07:27:38.753Z,65.25
2023-02-22T07:30:07.323Z,65.57
2023-02-22T07:32:34.395Z,65.40
2023-02-22T07:35:03.048Z,65.25
2023-02-22T07:37:30.341Z,65.28
2023-02-22T07:39:57.182Z,65.24
2023-02-22T07:42:24.030Z,65.35
2023-02-22T07:44:50.795Z,65.34
2023-02-22T07:47:17.597Z,65.25
2023-02-22T07:49:44.418Z,65.30
2023-02-22T07:52:12.753Z,65.30
2023-02-22T07:54:39.717Z,65.43
2023-02-22T07:57:06.579Z,65.55
2023-02-22T07:59:34.041Z,65.41
2023-02-22T08:02:00.899Z,65.32
2023-02-22T08:04:27.651Z,65.24
2023-02-22T08:06:54.453Z,65.24
2023-02-22T08:09:21.291Z,65.25
2023-02-22T08:11:48.100Z,65.25
2023-02-22T08:14:17.409Z,65.25
2023-02-22T08:16:44.275Z,65.21
2023-02-22T08:19:11.216Z,65.13
2023-02-22T08:21:37.979Z,65.07
2023-02-22T08:24:05.214Z,64.95
2023-02-22T08:26:32.012Z,64.93
2023-02-22T08:28:58.805Z,64.90
2023-02-22T08:31:25.654Z,64.88
2023-02-22T08:33:52.512Z,64.99
2023-02-22T08:36:19.390Z,65.22
2023-02-22T08:38:46.251Z,65.07
2023-02-22T08:41:13.085Z,65.21
2023-02-22T08:43:39.874Z,65.31
2023-02-22T08:46:06.732Z,65.49
2023-02-22T08:48:33.598Z,65.70
2023-02-22T08:51:00.397Z,65.69
2023-02-22T08:53:27.225Z,65.87
2023-02-22T08:55:54.164Z,66.17
2023-02-22T08:58:20.981Z,66.21
2023-02-22T09:00:47.972Z,66.29
2023-02-22T09:03:15.364Z,66.41
2023-02-22T09:05:44.016Z,66.27
2023-02-22T09:08:11.172Z,66.32
2023-02-22T09:10:38.022Z,66.39
2023-02-22T09:13:05.289Z,66.34
2023-02-22T09:15:33.191Z,66.57
2023-02-22T09:18:00.537Z,66.52
2023-02-22T09:20:29.126Z,66.53
2023-02-22T09:22:56.476Z,66.50
2023-02-22T09:25:23.957Z,66.61
2023-02-22T09:27:52.695Z,66.64
2023-02-22T09:30:32.476Z,66.67
2023-02-22T09:33:10.101Z,66.51
2023-02-22T09:35:38.080Z,66.90
2023-02-22T09:38:08.276Z,66.77
2023-02-22T09:40:45.085Z,66.75
2023-02-22T09:43:21.401Z,66.63
2023-02-22T09:46:13.758Z,66.63
2023-02-22T09:49:16.052Z,66.51
2023-02-22T09:51:52.735Z,66.89
2023-02-22T09:54:30.026Z,66.67
2023-02-22T09:57:00.544Z,66.40
2023-02-22T09:59:37.590Z,66.21
2023-02-22T10:02:25.350Z,67.01
2023-02-22T10:05:17.813Z,66.29
2023-02-22T10:07:54.247Z,66.17
2023-02-22T10:10:23.553Z,66.04
2023-02-22T10:13:23.692Z,66.02
2023-02-22T10:16:12.214Z,65.99
2023-02-22T10:19:17.193Z,66.12
2023-02-22T10:22:26.583Z,66.17
2023-02-22T10:25:12.951Z,66.09
2023-02-22T10:27:44.928Z,65.84
2023-02-22T10:30:24.452Z,65.71
2023-02-22T10:33:18.438Z,65.86
2023-02-22T10:35:47.105Z,65.69
2023-02-22T10:38:24.407Z,65.62
2023-02-22T10:40:58.014Z,65.57
2023-02-22T10:43:25.838Z,65.82
2023-02-22T10:46:01.353Z,65.68
2023-02-22T10:48:31.206Z,65.36
2023-02-22T10:51:03.528Z,65.31
2023-02-22T10:53:30.918Z,65.29
2023-02-22T10:56:21.744Z,65.27
2023-02-22T10:59:02.353Z,65.46
2023-02-22T11:01:32.283Z,65.23
2023-02-22T11:04:19.132Z,65.22
2023-02-22T11:06:48.970Z,65.18
2023-02-22T11:09:18.642Z,65.17
2023-02-22T11:11:47.870Z,65.18
2023-02-22T11:14:34.973Z,65.11
2023-02-22T11:17:07.914Z,65.22
2023-02-22T11:19:38.306Z,65.15
2023-02-22T11:22:05.086Z,65.04
2023-02-22T11:24:40.350Z,65.02
2023-02-22T11:27:43.888Z,65.04
2023-02-22T11:30:22.144Z,65.02
2023-02-22T11:32:54.730Z,64.91
2023-02-22T11:35:35.487Z,64.77
2023-02-22T11:38:16.356Z,64.72
2023-02-22T11:40:44.369Z,64.70
2023-02-22T11:43:18.961Z,64.67
2023-02-22T11:46:17.634Z,64.75
2023-02-22T11:49:05.152Z,64.55
2023-02-22T11:51:40.852Z,64.54
2023-02-22T11:54:22.563Z,64.30
2023-02-22T11:56:53.543Z,64.22
2023-02-22T11:59:32.337Z,64.08
2023-02-22T12:02:05.476Z,63.97
2023-02-22T12:05:10.828Z,63.97
2023-02-22T12:07:44.696Z,64.07
2023-02-22T12:10:44.177Z,64.07
2023-02-22T12:13:34.182Z,64.11
2023-02-22T12:16:03.972Z,64.15
2023-02-22T12:18:33.790Z,64.10
2023-02-22T12:21:05.691Z,64.10
2023-02-22T12:23:53.384Z,64.06
2023-02-22T12:26:30.543Z,64.00
2023-02-22T12:29:28.200Z,64.00
2023-02-22T12:32:00.888Z,63.98
2023-02-22T12:34:27.657Z,63.88
2023-02-22T12:37:23.453Z,63.83
2023-02-22T12:40:10.208Z,63.78
2023-02-22T12:42:36.936Z,63.79
2023-02-22T12:45:11.666Z,63.81
2023-02-22T12:47:46.474Z,63.72
2023-02-22T12:50:20.257Z,63.67
2023-02-22T12:52:56.082Z,63.80
2023-02-22T12:55:37.445Z,63.81
2023-02-22T12:58:25.198Z,63.68
2023-02-22T13:01:05.871Z,63.60
2023-02-22T13:03:43.064Z,63.76
2023-02-22T13:06:27.961Z,63.73
2023-02-22T13:08:54.762Z,63.73
2023-02-22T13:11:48.752Z,63.72
2023-02-22T13:14:34.088Z,63.72
2023-02-22T13:17:21.232Z,63.68
2023-02-22T13:20:20.094Z,63.64
2023-02-22T13:23:02.894Z,63.69
2023-02-22T13:25:58.092Z,63.71
2023-02-22T13:29:13.857Z,63.72
2023-02-22T13:32:09.376Z,63.77
2023-02-22T13:35:01.132Z,63.75
2023-02-22T13:37:52.345Z,63.82
2023-02-22T13:40:43.460Z,63.72
2023-02-22T13:43:34.297Z,63.65
2023-02-22T13:46:25.522Z,63.65
2023-02-22T13:49:05.804Z,63.63
2023-02-22T13:51:45.035Z,63.65
2023-02-22T13:54:20.968Z,63.58
2023-02-22T13:56:50.227Z,63.51
2023-02-22T13:59:36.441Z,63.56
2023-02-22T14:02:07.898Z,63.61
2023-02-22T14:04:42.395Z,63.66
2023-02-22T14:07:18.401Z,63.60
2023-02-22T14:09:49.250Z,63.50
2023-02-22T14:12:31.342Z,63.45
2023-02-22T14:15:18.693Z,63.32
2023-02-22T14:18:07.449Z,63.36
2023-02-22T14:20:40.155Z,63.42
2023-02-22T14:23:31.933Z,63.48
2023-02-22T14:26:10.565Z,63.54
2023-02-22T14:28:40.416Z,63.57
2023-02-22T14:31:29.526Z,63.59
2023-02-22T14:34:11.928Z,63.60
2023-02-22T14:36:41.795Z,63.53
2023-02-22T14:39:34.428Z,63.41
2023-02-22T14:42:22.507Z,63.31
2023-02-22T14:45:08.751Z,63.25
2023-02-22T14:47:54.448Z,63.32
2023-02-22T14:50:28.233Z,63.41
2023-02-22T14:53:04.294Z,63.38
2023-02-22T14:55:46.705Z,63.36
2023-02-22T14:58:18.903Z,63.41
2023-02-22T15:00:53.104Z,63.35
2023-02-22T15:03:37.417Z,63.38
2023-02-22T15:06:15.246Z,63.43
2023-02-22T15:08:48.727Z,63.47
2023-02-22T15:11:32.448Z,63.50
2023-02-22T15:14:01.195Z,63.50
2023-02-22T15:16:32.793Z,63.56
2023-02-22T15:19:04.892Z,63.53
2023-02-22T15:21:32.279Z,63.54
2023-02-22T15:24:02.044Z,63.50
2023-02-22T15:26:59.236Z,63.54
2023-02-22T15:29:38.072Z,63.55
2023-02-22T15:32:20.161Z,63.63
2023-02-22T15:34:47.119Z,63.63
2023-02-22T15:37:25.437Z,63.68
2023-02-22T15:39:59.509Z,63.74
2023-02-22T15:42:29.746Z,63.82
2023-02-22T15:44:57.077Z,63.90
2023-02-22T15:47:25.483Z,63.98
2023-02-22T15:50:16.171Z,64.05
2023-02-22T15:53:01.855Z,64.00
2023-02-22T15:55:37.731Z,64.46
2023-02-22T15:58:12.039Z,64.59
2023-02-22T16:00:42.296Z,64.40
2023-02-22T16:03:15.066Z,64.14
2023-02-22T16:05:52.589Z,63.87
2023-02-22T16:08:53.973Z,63.88
2023-02-22T16:11:30.917Z,63.91
2023-02-22T16:14:05.123Z,63.51
2023-02-22T16:16:41.598Z,63.39
2023-02-22T16:19:27.765Z,63.36
2023-02-22T16:22:03.529Z,63.23
2023-02-22T16:24:33.650Z,63.18
2023-02-22T16:27:12.977Z,63.17
2023-02-22T16:29:41.137Z,63.22
2023-02-22T16:32:09.322Z,63.21
2023-02-22T16:34:36.679Z,63.24
2023-02-22T16:37:03.641Z,63.28
2023-02-22T16:39:32.961Z,63.37
2023-02-22T16:42:05.512Z,63.45
2023-02-22T16:44:32.475Z,63.53
2023-02-22T16:47:00.761Z,63.48
2023-02-22T16:49:27.869Z,63.55
2023-02-22T16:51:58.751Z,63.86
2023-02-22T16:54:35.120Z,64.20
2023-02-22T16:57:04.880Z,64.22
2023-02-22T16:59:37.960Z,64.39
2023-02-22T17:02:10.848Z,64.31
2023-02-22T17:04:38.097Z,64.42
2023-02-22T17:07:05.918Z,64.47
2023-02-22T17:09:33.346Z,64.51
2023-02-22T17:12:02.465Z,64.50
2023-02-22T17:14:33.793Z,64.52
2023-02-22T17:17:00.991Z,64.61
2023-02-22T17:19:28.530Z,64.73
2023-02-22T17:21:56.165Z,64.36
2023-02-22T17:24:29.636Z,64.38
2023-02-22T17:26:59.513Z,64.34
2023-02-22T17:29:28.065Z,64.36
2023-02-22T17:31:55.753Z,64.45
2023-02-22T17:34:23.548Z,64.47
2023-02-22T17:36:52.169Z,64.62
2023-02-22T17:39:19.819Z,64.63
2023-02-22T17:41:52.965Z,64.70
2023-02-22T17:44:22.418Z,64.73
2023-02-22T17:46:50.209Z,64.65
2023-02-22T17:49:19.098Z,64.70
2023-02-22T17:51:49.760Z,64.64
2023-02-22T17:54:18.164Z,64.62
2023-02-22T17:56:46.146Z,64.71
2023-02-22T17:59:13.810Z,64.69
2023-02-22T18:01:47.194Z,64.62
2023-02-22T18:04:14.956Z,65.13
2023-02-22T18:06:44.058Z,65.30
2023-02-22T18:09:12.604Z,65.26
2023-02-22T18:11:40.652Z,64.94
2023-02-22T18:14:11.083Z,64.93
2023-02-22T18:16:39.943Z,64.92
2023-02-22T18:19:11.860Z,64.89
2023-02-22T18:21:42.092Z,64.88
2023-02-22T18:24:10.138Z,64.93
2023-02-22T18:26:39.521Z,64.87
2023-02-22T18:29:07.467Z,64.80
2023-02-22T18:31:35.503Z,64.78
2023-02-22T18:34:04.403Z,64.76
2023-02-22T18:36:33.570Z,64.73
2023-02-22T18:39:02.016Z,64.66
2023-02-22T18:41:29.974Z,64.76
2023-02-22T18:44:00.554Z,64.67
2023-02-22T18:46:30.701Z,64.69
2023-02-22T18:49:00.360Z,64.54
2023-02-22T18:51:29.462Z,64.57
2023-02-22T18:54:03.312Z,64.59
2023-02-22T18:56:34.520Z,64.51
2023-02-22T18:59:04.223Z,64.52
2023-02-22T19:01:39.263Z,64.43
2023-02-22T19:04:12.995Z,64.56
2023-02-22T19:06:43.052Z,64.56
2023-02-22T19:09:13.014Z,64.90
2023-02-22T19:11:45.353Z,65.07
2023-02-22T19:14:14.980Z,65.21
2023-02-22T19:16:46.700Z,65.33
2023-02-22T19:19:16.916Z,65.59
2023-02-22T19:21:44.654Z,65.57
2023-02-22T19:24:13.877Z,65.62
2023-02-22T19:26:52.201Z,65.76
2023-02-22T19:29:24.320Z,65.78
2023-02-22T19:31:54.177Z,65.82
2023-02-22T19:34:25.365Z,66.02
2023-02-22T19:36:54.813Z,66.07
2023-02-22T19:39:24.693Z,65.85
2023-02-22T19:41:53.870Z,66.00
2023-02-22T19:44:25.437Z,65.93
2023-02-22T19:46:58.817Z,65.87
2023-02-22T19:49:28.508Z,65.99
2023-02-22T19:51:58.708Z,65.92
2023-02-22T19:54:27.145Z,65.88
2023-02-22T19:56:58.881Z,65.91
2023-02-22T19:59:27.562Z,66.01
2023-02-22T20:01:57.306Z,65.96
2023-02-22T20:04:26.258Z,65.87
2023-02-22T20:06:55.501Z,65.98
2023-02-22T20:09:37.989Z,66.02
2023-02-22T20:12:08.799Z,66.05
2023-02-22T20:14:39.813Z,66.09
2023-02-22T20:17:09.626Z,65.98
2023-02-22T20:19:39.368Z,66.25
2023-02-22T20:22:08.255Z,66.10
2023-02-22T20:24:44.538Z,65.86
2023-02-22T20:27:13.249Z,65.91
2023-02-22T20:29:43.495Z,65.99
2023-02-22T20:32:16.621Z,66.02
2023-02-22T20:34:49.813Z,66.06
2023-02-22T20:37:22.512Z,66.10
2023-02-22T20:39:54.061Z,66.08
2023-02-22T20:42:22.829Z,66.24
2023-02-22T20:44:51.513Z,66.24
2023-02-22T20:47:19.778Z,66.36
2023-02-22T20:49:48.641Z,66.22
2023-02-22T20:52:17.604Z,66.36
2023-02-22T20:54:47.058Z,66.31
2023-02-22T20:57:15.430Z,66.14
2023-02-22T20:59:46.127Z,66.19
2023-02-22T21:02:14.776Z,66.16
2023-02-22T21:04:45.134Z,66.17
2023-02-22T21:07:14.102Z,66.31
2023-02-22T21:09:43.106Z,66.30
2023-02-22T21:12:14.010Z,66.22
2023-02-22T21:14:46.848Z,66.29
2023-02-22T21:17:14.881Z,66.38
2023-02-22T21:19:43.169Z,66.28
2023-02-22T21:22:11.503Z,66.19
2023-02-22T21:24:39.490Z,66.35
2023-02-22T21:27:07.680Z,66.25
2023-02-22T21:29:37.073Z,66.33
2023-02-22T21:32:05.397Z,66.40
2023-02-22T21:34:34.391Z,66.39
2023-02-22T21:37:02.670Z,66.25
2023-02-22T21:39:30.861Z,66.46
2023-02-22T21:42:02.252Z,66.44
2023-02-22T21:44:30.934Z,66.38
2023-02-22T21:46:58.914Z,66.51
2023-02-22T21:49:28.917Z,66.64
2023-02-22T21:51:56.570Z,66.46
2023-02-22T21:54:24.177Z,66.59
2023-02-22T21:56:51.546Z,66.59
2023-02-22T21:59:20.875Z,66.64
2023-02-22T22:01:50.446Z,66.50
2023-02-22T22:04:20.589Z,66.40
2023-02-22T22:06:53.000Z,66.47
2023-02-22T22:09:23.378Z,66.34
2023-02-22T22:11:53.584Z,66.31
2023-02-22T22:14:23.413Z,66.37
2023-02-22T22:16:52.798Z,66.54
2023-02-22T22:19:19.982Z,66.31
2023-02-22T22:21:47.132Z,66.52
2023-02-22T22:24:13.910Z,66.57
2023-02-22T22:26:40.873Z,66.40
2023-02-22T22:29:11.559Z,66.31
2023-02-22T22:31:38.837Z,66.40
2023-02-22T22:34:06.241Z,66.41
2023-02-22T22:36:34.507Z,66.65
2023-02-22T22:39:01.416Z,66.63
2023-02-22T22:41:28.354Z,66.40
2023-02-22T22:43:55.819Z,66.56
2023-02-22T22:46:23.033Z,66.52
2023-02-22T22:48:49.884Z,66.30
2023-02-22T22:51:20.343Z,66.55
2023-02-22T22:53:49.033Z,66.53
2023-02-22T22:56:21.544Z,66.31
2023-02-22T22:58:51.709Z,66.38
2023-02-22T23:01:26.897Z,66.30
2023-02-22T23:04:02.138Z,66.46
2023-02-22T23:06:40.759Z,66.46
2023-02-22T23:09:13.338Z,66.44
2023-02-22T23:11:46.683Z,66.69
2023-02-22T23:14:16.003Z,66.59
2023-02-22T23:16:43.014Z,66.64
2023-02-22T23:19:10.024Z,66.62
2023-02-22T23:21:37.520Z,66.75
2023-02-22T23:24:08.416Z,66.87
2023-02-22T23:26:35.512Z,66.63
2023-02-22T23:29:02.920Z,66.77
2023-02-22T23:31:30.091Z,66.64
2023-02-22T23:33:59.016Z,66.72
2023-02-22T23:36:26.991Z,66.83
2023-02-22T23:38:54.359Z,66.66
2023-02-22T23:41:25.057Z,66.79
2023-02-22T23:43:52.003Z,66.49
2023-02-22T23:46:19.021Z,66.59
2023-02-22T23:48:54.758Z,66.51
2023-02-22T23:51:26.515Z,66.46
2023-02-22T23:53:57.472Z,66.45
2023-02-22T23:56:27.052Z,66.50
2023-02-22T23:58:57.377Z,66.37
